Time;durP1;ratioP1;P1;durP2;ratioP2;P2;SDS_P1;SDS_P2;PMS_P1;PMS_P2;Temp;Humidity;BMP_temperature;BMP_pressure;BME280_temperature;BME280_humidity;BME280_pressure;Samples;Min_cycle;Max_cycle;Signal;HPM_P1;HPM_P2
2022/05/15 00:00:38;;;;;;;;;;;;;;;15.80;100.00;99695.66;5052263;28;645;-74
2022/05/15 00:03:06;;;;;;;;;;;;;;;15.80;100.00;99711.59;5051999;28;1889;-74
2022/05/15 00:05:32;;;;;;;;;;;;;;;15.78;100.00;99714.03;5033985;28;918;-73
2022/05/15 00:07:59;;;;;;;;;;;;;;;15.76;100.00;99722.06;5051767;28;838;-73
2022/05/15 00:10:26;;;;;;;;;;;;;;;15.75;100.00;99712.16;5051706;28;886;-71
2022/05/15 00:12:53;;;;;;;;;;;;;;;15.74;100.00;99713.34;5051632;28;853;-72
2022/05/15 00:15:20;;;;;;;;;;;;;;;15.71;100.00;99718.59;5051636;28;831;-73
2022/05/15 00:17:47;;;;;;;;;;;;;;;15.70;100.00;99703.06;5051628;28;815;-72
2022/05/15 00:20:13;;;;;;;;;;;;;;;15.69;100.00;99712.63;5051596;28;869;-73
2022/05/15 00:22:42;;;;;;;;;;;;;;;15.70;100.00;99714.22;5051598;28;986;-72
2022/05/15 00:25:09;;;;;;;;;;;;;;;15.73;100.00;99709.03;5051505;28;1998;-74
2022/05/15 00:27:36;;;;;;;;;;;;;;;15.70;100.00;99714.22;5051514;28;1420;-76
2022/05/15 00:30:03;;;;;;;;;;;;;;;15.70;100.00;99707.84;5051458;28;839;-75
2022/05/15 00:32:28;;;;;;;;;;;;;;;15.67;100.00;99709.50;5051425;28;877;-74
2022/05/15 00:34:55;;;;;;;;;;;;;;;15.67;100.00;99717.88;5033605;28;1229;-74
2022/05/15 00:37:22;;;;;;;;;;;;;;;15.69;100.00;99726.56;5051392;28;851;-75
2022/05/15 00:39:49;;;;;;;;;;;;;;;15.70;100.00;99716.19;5051478;28;814;-75
2022/05/15 00:42:19;;;;;;;;;;;;;;;15.66;100.00;99705.19;5051643;28;1045;-75
2022/05/15 00:44:46;;;;;;;;;;;;;;;15.63;100.00;99708.03;5051546;28;1902;-76
2022/05/15 00:47:14;;;;;;;;;;;;;;;15.63;100.00;99697.69;5033849;28;858;-76
2022/05/15 00:49:41;;;;;;;;;;;;;;;15.68;100.00;99705.53;5051090;28;914;-76
2022/05/15 00:52:11;;;;;;;;;;;;;;;15.68;100.00;99705.53;5051298;28;822;-75
2022/05/15 00:54:56;;;;;;;;;;;;;;;15.69;100.00;99707.06;5053121;28;803;-76
2022/05/15 00:57:26;;;;;;;;;;;;;;;15.67;100.00;99700.38;5055374;28;917;-76
2022/05/15 00:59:56;;;;;;;;;;;;;;;15.65;100.00;99700.81;5055639;28;878;-75
2022/05/15 01:02:25;;;;;;;;;;;;;;;15.63;100.00;99702.47;5037369;28;1256;-74
2022/05/15 01:04:52;;;;;;;;;;;;;;;15.59;100.00;99702.56;5037184;28;1969;-74
2022/05/15 01:07:19;;;;;;;;;;;;;;;15.58;100.00;99694.66;5037458;28;1077;-74
2022/05/15 01:09:46;;;;;;;;;;;;;;;15.53;100.00;99695.97;5055168;28;969;-74
2022/05/15 01:12:14;;;;;;;;;;;;;;;15.42;100.00;99696.25;5055028;28;889;-74
2022/05/15 01:14:42;;;;;;;;;;;;;;;15.31;100.00;99688.19;5037390;28;960;-74
2022/05/15 01:17:09;;;;;;;;;;;;;;;15.24;100.00;99695.94;5037039;28;1366;-74
2022/05/15 01:19:38;;;;;;;;;;;;;;;15.15;100.00;99699.34;5054941;28;799;-74
2022/05/15 01:22:07;;;;;;;;;;;;;;;15.11;100.00;99705.00;5054973;28;854;-74
2022/05/15 01:24:34;;;;;;;;;;;;;;;15.11;100.00;99707.00;5055016;28;1889;-73
2022/05/15 01:27:04;;;;;;;;;;;;;;;15.11;100.00;99710.56;5055312;28;1025;-74
2022/05/15 01:29:32;;;;;;;;;;;;;;;15.12;100.00;99714.13;5054888;28;1283;-73
2022/05/15 01:32:00;;;;;;;;;;;;;;;15.10;100.00;99705.44;5054839;28;901;-72
2022/05/15 01:34:25;;;;;;;;;;;;;;;15.03;100.00;99705.63;5037010;28;1200;-72
2022/05/15 01:36:52;;;;;;;;;;;;;;;14.98;100.00;99709.72;5054716;28;854;-73
2022/05/15 01:39:20;;;;;;;;;;;;;;;14.97;100.00;99707.34;5054623;28;868;-73
2022/05/15 01:41:46;;;;;;;;;;;;;;;14.97;100.00;99704.56;5054526;28;940;-73
2022/05/15 01:44:13;;;;;;;;;;;;;;;14.96;100.00;99700.22;5036576;28;1959;-74
2022/05/15 01:46:40;;;;;;;;;;;;;;;14.97;100.00;99702.56;5054408;28;837;-74
2022/05/15 01:49:07;;;;;;;;;;;;;;;15.00;100.00;99712.84;5054333;28;944;-75
2022/05/15 01:51:37;;;;;;;;;;;;;;;15.03;100.00;99711.97;5036625;28;1362;-74
2022/05/15 01:54:04;;;;;;;;;;;;;;;15.05;100.00;99717.09;5036791;28;1267;-74
2022/05/15 01:56:36;;;;;;;;;;;;;;;15.03;100.00;99714.75;5054218;28;751;-75
2022/05/15 01:59:03;;;;;;;;;;;;;;;15.00;100.00;99712.84;5054410;28;933;-74
2022/05/15 02:01:30;;;;;;;;;;;;;;;14.98;100.00;99706.13;5054397;28;803;-74
2022/05/15 02:03:57;;;;;;;;;;;;;;;14.95;100.00;99709.78;5054340;28;1894;-74
2022/05/15 02:06:24;;;;;;;;;;;;;;;14.89;100.00;99712.28;5035378;28;1386;-73
2022/05/15 02:08:51;;;;;;;;;;;;;;;14.84;100.00;99713.59;5036318;28;1491;-74
2022/05/15 02:11:18;;;;;;;;;;;;;;;14.79;100.00;99710.56;5036843;28;1074;-75
2022/05/15 02:13:45;;;;;;;;;;;;;;;14.75;100.00;99707.88;5036824;28;1618;-75
2022/05/15 02:16:15;;;;;;;;;;;;;;;14.76;100.00;99708.66;5054469;28;767;-75
2022/05/15 02:18:42;;;;;;;;;;;;;;;14.80;100.00;99710.13;5036220;28;1167;-75
2022/05/15 02:21:09;;;;;;;;;;;;;;;14.87;100.00;99717.50;5036209;28;1379;-76
2022/05/15 02:23:38;;;;;;;;;;;;;;;14.92;100.00;99713.44;5036063;28;2045;-76
2022/05/15 02:26:04;;;;;;;;;;;;;;;14.96;100.00;99712.13;5035799;28;1201;-75
2022/05/15 02:28:31;;;;;;;;;;;;;;;15.00;100.00;99714.81;5035544;28;1263;-75
2022/05/15 02:30:58;;;;;;;;;;;;;;;15.01;100.00;99717.16;5035730;28;1303;-75
2022/05/15 02:33:25;;;;;;;;;;;;;;;14.99;100.00;99713.25;5053522;28;803;-73
2022/05/15 02:35:51;;;;;;;;;;;;;;;14.96;100.00;99722.50;5053511;28;889;-69
2022/05/15 02:38:18;;;;;;;;;;;;;;;14.96;100.00;99716.94;5053602;28;810;-68
2022/05/15 02:40:45;;;;;;;;;;;;;;;15.06;100.00;99715.88;5053568;28;811;-69
2022/05/15 02:43:11;;;;;;;;;;;;;;;15.10;100.00;99711.78;5053401;28;1910;-68
2022/05/15 02:45:38;;;;;;;;;;;;;;;15.16;100.00;99714.81;5053372;28;878;-68
2022/05/15 02:48:04;;;;;;;;;;;;;;;15.22;100.00;99709.53;5053397;28;858;-68
2022/05/15 02:53:16;;;;;;;;;;;;;;;15.20;100.00;99709.19;5054061;28;668;-67
2022/05/15 02:55:42;;;;;;;;;;;;;;;15.14;100.00;99720.03;5053502;28;871;-67
2022/05/15 02:58:09;;;;;;;;;;;;;;;15.13;100.00;99712.94;5053118;28;811;-67
2022/05/15 03:00:36;;;;;;;;;;;;;;;15.13;100.00;99709.34;5053226;28;878;-66
2022/05/15 03:03:03;;;;;;;;;;;;;;;15.15;100.00;99721.63;5052978;28;1902;-66
2022/05/15 03:05:30;;;;;;;;;;;;;;;15.17;100.00;99730.31;5053057;28;830;-65
2022/05/15 03:07:57;;;;;;;;;;;;;;;15.19;100.00;99725.09;5053207;28;898;-65
2022/05/15 03:10:23;;;;;;;;;;;;;;;15.22;100.00;99732.56;5052840;28;842;-65
2022/05/15 03:12:50;;;;;;;;;;;;;;;15.25;100.00;99736.47;5052822;28;858;-65
2022/05/15 03:15:19;;;;;;;;;;;;;;;15.27;100.00;99734.81;5053032;28;838;-67
2022/05/15 03:17:46;;;;;;;;;;;;;;;15.39;100.00;99732.56;5052775;28;892;-67
2022/05/15 03:20:15;;;;;;;;;;;;;;;15.42;100.00;99742.81;5053492;28;751;-67
2022/05/15 03:22:42;;;;;;;;;;;;;;;15.42;100.00;99740.81;5052752;28;980;-67
2022/05/15 03:25:09;;;;;;;;;;;;;;;15.42;100.00;99740.03;5052825;28;1898;-68
2022/05/15 03:27:36;;;;;;;;;;;;;;;15.43;100.00;99745.16;5052521;28;1220;-68
2022/05/15 03:30:05;;;;;;;;;;;;;;;15.45;100.00;99745.53;5052740;28;850;-68
2022/05/15 03:32:32;;;;;;;;;;;;;;;15.46;100.00;99749.06;5052504;28;834;-68
2022/05/15 03:35:00;;;;;;;;;;;;;;;15.44;100.00;99751.50;5052518;28;889;-68
2022/05/15 03:37:26;;;;;;;;;;;;;;;15.45;100.00;99750.31;5052384;28;822;-70
2022/05/15 03:39:53;;;;;;;;;;;;;;;15.50;100.00;99756.13;5052457;28;873;-69
2022/05/15 03:42:20;;;;;;;;;;;;;;;15.54;100.00;99760.84;5052312;28;818;-66
2022/05/15 03:44:47;;;;;;;;;;;;;;;15.57;100.00;99757.94;5052211;28;1969;-68
2022/05/15 03:47:14;;;;;;;;;;;;;;;15.60;100.00;99768.22;5052174;28;779;-67
2022/05/15 03:49:40;;;;;;;;;;;;;;;15.64;100.00;99774.47;5052252;28;901;-67
2022/05/15 03:52:18;;;;;;;;;;;;;;;;;;;;;
2022/05/15 03:54:46;;;;;;;;;;;;;;;15.68;100.00;99764.03;5051929;28;844;-72
2022/05/15 03:57:14;;;;;;;;;;;;;;;15.70;100.00;99777.50;5034282;28;1394;-73
2022/05/15 03:59:41;;;;;;;;;;;;;;;15.75;100.00;99767.88;5052005;28;811;-72
2022/05/15 04:02:09;;;;;;;;;;;;;;;15.79;100.00;99765.75;5051945;28;838;-71
2022/05/15 04:04:36;;;;;;;;;;;;;;;15.84;100.00;99773.59;5034077;28;1902;-70
2022/05/15 04:07:04;;;;;;;;;;;;;;;15.84;100.00;99777.16;5051884;28;826;-72
2022/05/15 04:09:32;;;;;;;;;;;;;;;15.89;100.00;99776.59;5051741;28;831;-72
2022/05/15 04:11:59;;;;;;;;;;;;;;;15.95;100.00;99778.88;5052012;28;818;-72
2022/05/15 04:14:26;;;;;;;;;;;;;;;16.00;100.00;99781.13;5051854;28;957;-72
2022/05/15 04:16:53;;;;;;;;;;;;;;;16.05;100.00;99791.75;5033898;28;847;-72
2022/05/15 04:19:20;;;;;;;;;;;;;;;16.10;100.00;99797.53;5051920;28;803;-72
2022/05/15 04:21:47;;;;;;;;;;;;;;;16.15;100.00;99804.59;5051744;28;878;-72
2022/05/15 04:24:15;;;;;;;;;;;;;;;16.18;100.00;99798.16;5051728;28;1945;-72
2022/05/15 04:26:43;;;;;;;;;;;;;;;16.22;100.00;99796.03;5052012;28;1067;-72
2022/05/15 04:29:10;;;;;;;;;;;;;;;16.24;100.00;99790.03;5033205;28;1525;-71
2022/05/15 04:31:37;;;;;;;;;;;;;;;16.27;100.00;99803.06;5051973;28;802;-72
2022/05/15 04:34:04;;;;;;;;;;;;;;;16.27;100.00;99808.66;5052156;28;807;-71
2022/05/15 04:36:32;;;;;;;;;;;;;;;16.29;100.00;99803.41;5033955;28;861;-72
2022/05/15 04:38:58;;;;;;;;;;;;;;;16.32;100.00;99803.31;5033979;28;835;-71
2022/05/15 04:41:26;;;;;;;;;;;;;;;16.32;100.00;99814.47;5034037;28;819;-71
2022/05/15 04:43:52;;;;;;;;;;;;;;;16.41;100.00;99811.03;5051440;28;1886;-68
2022/05/15 04:46:21;;;;;;;;;;;;;;;16.48;100.00;99804.47;5051874;28;780;-68
2022/05/15 04:48:48;;;;;;;;;;;;;;;16.49;100.00;99801.25;5051579;28;854;-68
2022/05/15 04:51:14;;;;;;;;;;;;;;;16.49;100.00;99804.03;5051457;28;849;-68
2022/05/15 04:53:40;;;;;;;;;;;;;;;16.47;100.00;99800.09;5051525;28;822;-68
2022/05/15 04:56:08;;;;;;;;;;;;;;;16.46;100.00;99813.28;5052009;28;854;-68
2022/05/15 04:58:35;;;;;;;;;;;;;;;16.47;100.00;99811.25;5051415;28;811;-68
2022/05/15 05:01:01;;;;;;;;;;;;;;;16.50;100.00;99818.75;5051475;28;815;-68
2022/05/15 05:03:28;;;;;;;;;;;;;;;16.50;100.00;99816.75;5051640;28;1910;-67
2022/05/15 05:05:55;;;;;;;;;;;;;;;16.49;100.00;99820.78;5033425;28;1335;-68
2022/05/15 05:08:21;;;;;;;;;;;;;;;16.49;100.00;99822.75;5033556;28;794;-68
2022/05/15 05:10:48;;;;;;;;;;;;;;;16.52;100.00;99825.47;5051197;28;861;-68
2022/05/15 05:13:15;;;;;;;;;;;;;;;16.60;100.00;99828.03;5033268;28;1447;-67
2022/05/15 05:15:42;;;;;;;;;;;;;;;16.69;100.00;99820.59;5051239;28;881;-68
2022/05/15 05:18:08;;;;;;;;;;;;;;;16.78;100.00;99821.94;5051105;28;916;-68
2022/05/15 05:20:36;;;;;;;;;;;;;;;16.88;100.00;99820.88;5051061;28;794;-66
2022/05/15 05:23:03;;;;;;;;;;;;;;;16.94;100.00;99817.06;5051022;28;893;-66
2022/05/15 05:25:30;;;;;;;;;;;;;;;17.07;100.00;99816.28;5050925;28;1953;-66
2022/05/15 05:27:57;;;;;;;;;;;;;;;17.13;100.00;99814.50;5050936;28;1375;-66
2022/05/15 05:30:24;;;;;;;;;;;;;;;17.20;100.00;99808.69;5050877;28;845;-66
2022/05/15 05:32:49;;;;;;;;;;;;;;;17.36;100.00;99804.97;5050965;28;818;-67
2022/05/15 05:35:17;;;;;;;;;;;;;;;17.58;100.00;99807.88;5033031;28;2346;-67
2022/05/15 05:37:44;;;;;;;;;;;;;;;17.81;100.00;99811.47;5033151;28;1568;-68
2022/05/15 05:40:11;;;;;;;;;;;;;;;18.07;100.00;99815.78;5033000;28;1185;-68
2022/05/15 05:42:38;;;;;;;;;;;;;;;18.37;100.00;99824.72;5054025;28;782;-68
2022/05/15 05:45:06;;;;;;;;;;;;;;;18.60;100.00;99825.47;5036577;28;1967;-69
2022/05/15 05:47:33;;;;;;;;;;;;;;;18.83;100.00;99816.59;5054355;28;799;-69
2022/05/15 05:49:59;;;;;;;;;;;;;;;18.97;100.00;99824.47;5054398;28;867;-69
2022/05/15 05:52:27;;;;;;;;;;;;;;;19.27;100.00;99824.13;5036715;28;1129;-69
2022/05/15 05:54:53;;;;;;;;;;;;;;;19.66;100.00;99830.91;5054319;28;847;-69
2022/05/15 05:57:20;;;;;;;;;;;;;;;19.95;100.00;99835.31;5054262;28;866;-70
2022/05/15 05:59:47;;;;;;;;;;;;;;;20.07;100.00;99837.19;5054259;28;873;-68
2022/05/15 06:02:14;;;;;;;;;;;;;;;20.25;100.00;99835.63;5054238;28;823;-67
2022/05/15 06:04:44;;;;;;;;;;;;;;;20.36;99.77;99839.53;5054088;28;1958;-66
2022/05/15 06:07:15;;;;;;;;;;;;;;;20.31;100.00;99844.97;5054316;28;835;-65
2022/05/15 06:09:47;;;;;;;;;;;;;;;20.41;99.18;99835.31;5054052;28;854;-64
2022/05/15 06:12:15;;;;;;;;;;;;;;;20.84;98.55;99838.22;5054053;28;811;-62
2022/05/15 06:14:42;;;;;;;;;;;;;;;21.36;96.26;99841.78;5054025;28;862;-62
2022/05/15 06:17:09;;;;;;;;;;;;;;;21.46;94.78;99839.72;5053984;28;873;-61
2022/05/15 06:19:36;;;;;;;;;;;;;;;21.16;96.09;99850.75;5053793;28;882;-60
2022/05/15 06:22:03;;;;;;;;;;;;;;;20.90;96.79;99850.38;5053730;28;879;-60
2022/05/15 06:24:28;;;;;;;;;;;;;;;20.75;97.84;99853.06;5053767;28;1953;-60
2022/05/15 06:27:02;;;;;;;;;;;;;;;20.76;97.93;99852.59;5053868;28;879;-59
2022/05/15 06:29:29;;;;;;;;;;;;;;;20.76;97.05;99854.59;5053443;28;1438;-60
2022/05/15 06:31:56;;;;;;;;;;;;;;;20.69;97.07;99857.75;5053670;28;865;-60
2022/05/15 06:34:23;;;;;;;;;;;;;;;20.57;96.64;99859.47;5053726;28;877;-60
2022/05/15 06:36:49;;;;;;;;;;;;;;;20.40;97.82;99853.41;5053647;28;834;-60
2022/05/15 06:39:17;;;;;;;;;;;;;;;20.51;98.66;99847.31;5053591;28;854;-60
2022/05/15 06:41:46;;;;;;;;;;;;;;;20.70;97.58;99854.50;5053478;28;937;-61
2022/05/15 06:44:13;;;;;;;;;;;;;;;21.06;96.25;99854.84;5035610;28;1926;-61
2022/05/15 06:46:40;;;;;;;;;;;;;;;21.31;94.02;99860.03;5053218;28;878;-60
2022/05/15 06:49:07;;;;;;;;;;;;;;;21.57;92.81;99863.25;5053267;28;830;-60
2022/05/15 06:51:34;;;;;;;;;;;;;;;22.22;90.36;99855.16;5035301;28;799;-61
2022/05/15 06:54:00;;;;;;;;;;;;;;;22.95;87.45;99861.31;5053067;28;877;-61
2022/05/15 06:59:13;;;;;;;;;;;;;;;24.05;83.02;99855.53;5053154;28;640;-61
2022/05/15 07:01:39;;;;;;;;;;;;;;;24.14;81.58;99869.47;5053197;28;830;-62
2022/05/15 07:04:06;;;;;;;;;;;;;;;24.64;81.18;99869.28;5052962;28;1877;-62
2022/05/15 07:06:33;;;;;;;;;;;;;;;24.69;80.23;99870.63;5052960;28;826;-63
2022/05/15 07:09:00;;;;;;;;;;;;;;;25.34;79.49;99870.16;5052958;28;891;-62
2022/05/15 07:11:27;;;;;;;;;;;;;;;26.20;77.52;99875.78;5052853;28;910;-62
2022/05/15 07:13:55;;;;;;;;;;;;;;;26.48;76.31;99872.25;5052912;28;893;-62
2022/05/15 07:16:20;;;;;;;;;;;;;;;26.93;74.97;99866.66;5052779;28;865;-62
2022/05/15 07:18:47;;;;;;;;;;;;;;;27.09;74.64;99870.78;5052795;28;869;-62
2022/05/15 07:21:14;;;;;;;;;;;;;;;26.47;76.96;99876.34;5052684;28;846;-62
2022/05/15 07:23:41;;;;;;;;;;;;;;;26.04;79.11;99879.31;5052593;28;1974;-62
2022/05/15 07:26:08;;;;;;;;;;;;;;;26.05;77.46;99873.16;5052670;28;915;-62
2022/05/15 07:28:35;;;;;;;;;;;;;;;26.64;78.63;99873.59;5052298;28;1722;-61
2022/05/15 07:31:02;;;;;;;;;;;;;;;27.92;73.53;99867.59;5052579;28;803;-61
2022/05/15 07:33:30;;;;;;;;;;;;;;;28.75;68.63;99871.28;5052554;28;910;-61
2022/05/15 07:35:56;;;;;;;;;;;;;;;29.26;68.38;99868.81;5034376;28;1256;-62
2022/05/15 07:38:23;;;;;;;;;;;;;;;29.43;67.86;99865.81;5052301;28;941;-61
2022/05/15 07:40:50;;;;;;;;;;;;;;;29.38;67.19;99875.19;5034462;28;1634;-61
2022/05/15 07:43:16;;;;;;;;;;;;;;;29.62;66.38;99862.25;5052223;28;1964;-62
2022/05/15 07:45:43;;;;;;;;;;;;;;;29.59;65.98;99869.78;5052264;28;838;-61
2022/05/15 07:48:10;;;;;;;;;;;;;;;29.39;63.68;99864.56;5052284;28;834;-62
2022/05/15 07:50:38;;;;;;;;;;;;;;;29.45;66.27;99874.59;5052139;28;1162;-61
2022/05/15 07:53:06;;;;;;;;;;;;;;;29.85;67.63;99874.19;5052135;28;893;-62
2022/05/15 07:55:33;;;;;;;;;;;;;;;29.81;64.43;99877.34;5052123;28;807;-62
2022/05/15 07:57:59;;;;;;;;;;;;;;;29.71;63.18;99876.94;5052021;28;819;-61
2022/05/15 08:00:26;;;;;;;;;;;;;;;29.29;62.26;99876.28;5052021;28;830;-61
2022/05/15 08:03:03;;;;;;;;;;;;;;;28.97;64.59;99878.88;5051924;28;819;-62
2022/05/15 08:08:14;;;;;;;;;;;;;;;28.14;66.68;99881.69;5051866;28;629;-60
2022/05/15 08:10:42;;;;;;;;;;;;;;;28.50;64.73;99884.63;5051819;28;823;-61
2022/05/15 08:13:10;;;;;;;;;;;;;;;29.06;67.12;99877.75;5051929;28;870;-61
2022/05/15 08:15:37;;;;;;;;;;;;;;;29.31;64.20;99881.44;5052329;28;836;-60
2022/05/15 08:23:40;;;;;;;;;;;;;;;27.31;70.87;99887.03;5051632;28;1878;-61
2022/05/15 08:26:06;;;;;;;;;;;;;;;26.54;70.83;99898.53;5051896;28;1009;-61
2022/05/15 08:28:35;;;;;;;;;;;;;;;25.37;75.64;99903.09;5051362;28;1334;-61
2022/05/15 08:31:02;;;;;;;;;;;;;;;24.47;76.74;99899.38;5051759;28;843;-61
2022/05/15 08:33:34;;;;;;;;;;;;;;;24.23;78.11;99899.63;5051687;28;926;-62
2022/05/15 08:36:02;;;;;;;;;;;;;;;24.35;80.94;99900.53;5051336;28;823;-61
2022/05/15 08:38:29;;;;;;;;;;;;;;;25.35;80.96;99900.00;5051334;28;843;-61
2022/05/15 08:41:17;;;;;;;;;;;;;;;26.16;71.39;99906.41;5051264;28;1078;-60
2022/05/15 08:43:49;;;;;;;;;;;;;;;27.15;71.96;99899.16;5051264;28;1910;-61
2022/05/15 08:46:31;;;;;;;;;;;;;;;27.04;65.65;99906.38;5051291;28;989;-61
2022/05/15 08:49:03;;;;;;;;;;;;;;;26.14;72.21;99902.50;5051380;28;988;-61
2022/05/15 08:51:31;;;;;;;;;;;;;;;25.61;70.82;99904.81;5051365;28;857;-59
2022/05/15 08:54:00;;;;;;;;;;;;;;;25.17;73.16;99905.97;5051186;28;917;-59
2022/05/15 08:56:29;;;;;;;;;;;;;;;24.94;75.98;99914.25;5033663;28;1315;-61
2022/05/15 08:58:58;;;;;;;;;;;;;;;24.93;77.67;99914.78;5051233;28;799;-61
2022/05/15 09:01:29;;;;;;;;;;;;;;;24.81;76.12;99914.66;5051088;28;961;-61
2022/05/15 09:03:57;;;;;;;;;;;;;;;24.75;78.29;99911.03;5051367;28;1888;-60
2022/05/15 09:06:30;;;;;;;;;;;;;;;25.00;76.01;99909.44;5051396;28;862;-63
2022/05/15 09:09:32;;;;;;;;;;;;;;;25.37;74.41;99907.97;5051197;28;799;-62
2022/05/15 09:12:17;;;;;;;;;;;;;;;26.02;73.26;99913.78;4990005;28;1342;-61
2022/05/15 09:14:50;;;;;;;;;;;;;;;27.72;70.88;99908.38;4989767;28;1010;-60
2022/05/15 09:17:32;;;;;;;;;;;;;;;27.79;67.79;99905.03;4993663;28;953;-60
2022/05/15 09:20:00;;;;;;;;;;;;;;;27.22;70.63;99913.59;4993541;28;1070;-60
2022/05/15 09:22:29;;;;;;;;;;;;;;;26.73;69.56;99907.34;4993603;28;867;-60
2022/05/15 09:24:56;;;;;;;;;;;;;;;26.33;70.98;99906.47;4993622;28;1899;-60
2022/05/15 09:27:25;;;;;;;;;;;;;;;25.77;74.68;99909.78;4993408;28;1234;-61
2022/05/15 09:29:54;;;;;;;;;;;;;;;25.25;73.21;99907.13;4993517;28;819;-61
2022/05/15 09:32:28;;;;;;;;;;;;;;;24.90;75.52;99910.09;4993472;28;1060;-60
2022/05/15 09:34:59;;;;;;;;;;;;;;;25.11;77.13;99910.81;4993218;28;831;-59
2022/05/15 09:40:21;;;;;;;;;;;;;;;24.98;76.11;99897.84;4993755;28;1071;-61
2022/05/15 09:46:00;;;;;;;;;;;;;;;24.84;76.08;99898.75;5016926;28;1918;-59
2022/05/15 09:48:35;;;;;;;;;;;;;;;24.50;75.88;99898.41;5054353;28;2082;-60
2022/05/15 09:51:07;;;;;;;;;;;;;;;24.18;79.14;99889.81;5054507;28;810;-61
2022/05/15 09:53:50;;;;;;;;;;;;;;;24.10;81.64;99899.97;5054368;28;823;-61
2022/05/15 09:56:19;;;;;;;;;;;;;;;23.80;81.79;99897.28;5054093;28;973;-61
2022/05/15 10:27:33;;;;;;;;;;;;;;;23.98;84.06;99882.13;5406898;23;1600;-60
2022/05/15 10:30:07;;;;;;;;;;;;;;;24.54;82.73;99878.44;5073767;28;922;-60
2022/05/15 10:32:38;;;;;;;;;;;;;;;25.09;79.91;99882.25;5073839;28;806;-60
2022/05/15 10:35:09;;;;;;;;;;;;;;;25.39;75.23;99886.41;5074007;28;825;-59
2022/05/15 10:37:54;;;;;;;;;;;;;;;25.63;77.78;99888.09;5073553;28;924;-60
2022/05/15 10:40:24;;;;;;;;;;;;;;;26.25;73.38;99880.69;5073550;28;972;-59
2022/05/15 10:43:04;;;;;;;;;;;;;;;27.14;73.54;99874.91;5073535;28;846;-60
2022/05/15 10:45:31;;;;;;;;;;;;;;;27.36;71.11;99868.47;5055590;28;1898;-60
2022/05/15 10:48:06;;;;;;;;;;;;;;;27.51;72.94;99873.88;5073471;28;853;-60
2022/05/15 10:50:39;;;;;;;;;;;;;;;27.25;67.54;99880.63;5055380;28;2204;-59
2022/05/15 10:59:46;;;;;;;;;;;;;;;27.65;73.22;99878.47;5073597;28;687;-60
2022/05/15 11:02:18;;;;;;;;;;;;;;;27.83;76.10;99871.47;5070014;28;1289;-59
2022/05/15 11:04:52;;;;;;;;;;;;;;;28.37;74.75;99870.97;5072919;28;1948;-59
2022/05/15 11:07:25;;;;;;;;;;;;;;;28.65;68.33;99865.13;5073001;28;874;-60
2022/05/15 11:09:52;;;;;;;;;;;;;;;29.16;66.01;99861.94;5072963;28;846;-60
2022/05/15 11:12:22;;;;;;;;;;;;;;;28.68;64.94;99852.72;5072963;28;837;-60
2022/05/15 11:14:52;;;;;;;;;;;;;;;27.90;66.27;99859.59;5073012;28;881;-59
2022/05/15 11:17:21;;;;;;;;;;;;;;;27.40;70.06;99847.06;5072896;28;907;-60
2022/05/15 11:19:50;;;;;;;;;;;;;;;27.20;71.83;99850.91;5072855;28;802;-60
2022/05/15 11:22:24;;;;;;;;;;;;;;;26.57;67.56;99846.53;5054962;28;842;-59
2022/05/15 11:25:06;;;;;;;;;;;;;;;25.95;73.28;99851.22;5072415;28;1889;-60
2022/05/15 11:27:37;;;;;;;;;;;;;;;25.91;74.58;99847.88;5072328;28;1225;-60
2022/05/15 11:30:08;;;;;;;;;;;;;;;26.37;72.52;99843.88;5072642;28;818;-59
2022/05/15 11:32:56;;;;;;;;;;;;;;;26.78;68.05;99849.91;5072516;28;857;-59
2022/05/15 11:35:25;;;;;;;;;;;;;;;27.12;65.09;99847.06;5072560;28;912;-60
2022/05/15 11:37:58;;;;;;;;;;;;;;;26.76;70.77;99851.72;5072354;28;855;-60
2022/05/15 11:40:32;;;;;;;;;;;;;;;26.68;73.40;99852.22;5072515;28;806;-60
2022/05/15 11:42:59;;;;;;;;;;;;;;;26.65;65.35;99858.13;5072353;28;778;-58
2022/05/15 11:45:30;;;;;;;;;;;;;;;26.15;65.45;99867.25;5072122;28;1922;-59
2022/05/15 11:48:03;;;;;;;;;;;;;;;25.93;71.41;99865.13;5072127;28;980;-60
2022/05/15 11:50:41;;;;;;;;;;;;;;;26.26;71.62;99856.72;5072255;28;802;-60
2022/05/15 11:53:11;;;;;;;;;;;;;;;27.31;67.29;99852.97;5072098;28;906;-60
2022/05/15 11:55:40;;;;;;;;;;;;;;;28.08;64.75;99841.94;5072088;28;909;-59
2022/05/15 11:58:10;;;;;;;;;;;;;;;27.97;63.47;99838.38;5072113;28;905;-60
2022/05/15 12:00:39;;;;;;;;;;;;;;;27.69;57.96;99830.72;5072088;28;841;-59
2022/05/15 12:03:26;;;;;;;;;;;;;;;27.14;61.35;99835.97;5071892;28;918;-59
2022/05/15 12:06:05;;;;;;;;;;;;;;;27.47;60.45;99840.84;5054113;28;1422;-58
2022/05/15 12:08:35;;;;;;;;;;;;;;;27.86;61.41;99845.66;5071889;28;859;-59
2022/05/15 12:11:20;;;;;;;;;;;;;;;28.12;59.43;99846.56;5053982;28;1411;-59
2022/05/15 12:13:47;;;;;;;;;;;;;;;27.30;60.31;99842.94;5071909;28;861;-58
2022/05/15 12:16:32;;;;;;;;;;;;;;;26.16;62.86;99844.09;5071888;28;865;-59
2022/05/15 12:19:03;;;;;;;;;;;;;;;25.06;61.47;99844.47;5071759;28;861;-58
2022/05/15 12:21:35;;;;;;;;;;;;;;;24.24;69.44;99844.72;5071721;28;901;-59
2022/05/15 12:27:02;;;;;;;;;;;;;;;22.98;72.71;99840.63;5071965;28;1145;-59
2022/05/15 12:29:36;;;;;;;;;;;;;;;22.95;72.85;99823.91;5071770;28;857;-59
2022/05/15 12:32:06;;;;;;;;;;;;;;;23.37;71.07;99825.63;5071554;28;866;-59
2022/05/15 12:34:37;;;;;;;;;;;;;;;24.46;71.17;99838.50;5071658;28;829;-59
2022/05/15 12:37:08;;;;;;;;;;;;;;;25.62;64.90;99846.91;5071940;28;778;-59
2022/05/15 12:39:37;;;;;;;;;;;;;;;26.50;65.24;99835.69;5071650;28;794;-59
2022/05/15 12:42:11;;;;;;;;;;;;;;;26.74;63.91;99832.38;5071762;28;818;-60
2022/05/15 12:44:38;;;;;;;;;;;;;;;26.49;58.65;99834.88;5071343;28;1922;-58
2022/05/15 12:47:18;;;;;;;;;;;;;;;25.77;60.78;99843.91;5071485;28;1028;-59
2022/05/15 12:49:46;;;;;;;;;;;;;;;25.04;64.84;99835.72;5072418;28;809;-60
2022/05/15 12:52:15;;;;;;;;;;;;;;;24.33;66.55;99835.28;5078026;28;941;-59
2022/05/15 12:54:43;;;;;;;;;;;;;;;23.75;71.32;99838.69;5059922;28;1167;-59
2022/05/15 12:57:13;;;;;;;;;;;;;;;23.58;70.44;99835.66;5078131;28;865;-59
2022/05/15 12:59:43;;;;;;;;;;;;;;;23.95;67.28;99834.34;5078047;28;817;-59
2022/05/15 13:02:22;;;;;;;;;;;;;;;23.98;69.19;99830.53;5078005;28;865;-59
2022/05/15 13:04:51;;;;;;;;;;;;;;;23.69;73.04;99829.38;5078068;28;1898;-60
2022/05/15 13:07:24;;;;;;;;;;;;;;;23.00;66.20;99824.03;5077860;28;862;-58
2022/05/15 13:10:06;;;;;;;;;;;;;;;22.35;71.88;99817.50;5077913;28;896;-60
2022/05/15 13:12:34;;;;;;;;;;;;;;;21.86;70.14;99816.78;5077819;28;823;-58
2022/05/15 13:15:03;;;;;;;;;;;;;;;21.51;73.56;99805.34;5077955;28;873;-60
2022/05/15 13:17:34;;;;;;;;;;;;;;;21.28;74.48;99801.97;5077879;28;802;-60
2022/05/15 13:20:12;;;;;;;;;;;;;;;21.16;73.96;99817.03;5077847;28;951;-59
2022/05/15 13:22:39;;;;;;;;;;;;;;;21.08;73.96;99822.22;5077797;28;941;-58
2022/05/15 13:25:26;;;;;;;;;;;;;;;21.11;75.50;99835.31;5077394;28;1905;-60
2022/05/15 13:27:54;;;;;;;;;;;;;;;21.05;75.94;99851.25;5077417;28;1781;-59
2022/05/15 13:30:22;;;;;;;;;;;;;;;20.83;74.40;99834.63;5077663;28;834;-58
2022/05/15 13:32:51;;;;;;;;;;;;;;;20.68;76.14;99833.75;5077747;28;845;-59
2022/05/15 13:35:18;;;;;;;;;;;;;;;20.58;76.68;99838.59;5077604;28;881;-59
2022/05/15 13:37:49;;;;;;;;;;;;;;;20.48;76.32;99839.81;5077793;28;880;-60
2022/05/15 13:46:19;;;;;;;;;;;;;;;20.39;77.01;99835.00;5032526;28;1213;-60
2022/05/15 13:48:51;;;;;;;;;;;;;;;20.33;76.46;99834.88;5077556;28;790;-59
2022/05/15 13:51:37;;;;;;;;;;;;;;;20.34;78.37;99844.06;5077952;28;810;-59
2022/05/15 13:54:14;;;;;;;;;;;;;;;20.38;80.32;99851.06;5077581;28;858;-59
2022/05/15 13:56:43;;;;;;;;;;;;;;;20.38;81.00;99848.25;5059707;28;838;-59
2022/05/15 13:59:29;;;;;;;;;;;;;;;20.30;78.81;99841.41;5077419;28;1088;-58
2022/05/15 14:02:07;;;;;;;;;;;;;;;20.23;81.19;99841.72;5074248;28;1565;-59
2022/05/15 14:04:34;;;;;;;;;;;;;;;20.19;81.75;99844.69;5074870;28;1890;-60
2022/05/15 14:07:01;;;;;;;;;;;;;;;20.19;82.57;99850.28;5074209;28;890;-59
2022/05/15 14:09:49;;;;;;;;;;;;;;;20.19;83.52;99855.91;5074842;28;822;-60
2022/05/15 14:12:18;;;;;;;;;;;;;;;20.22;84.34;99853.41;5074489;28;806;-59
2022/05/15 14:14:45;;;;;;;;;;;;;;;20.24;84.33;99856.53;5074515;28;932;-60